Time;durP1;ratioP1;P1;durP2;ratioP2;P2;SDS_P1;SDS_P2;PMS_P1;PMS_P2;Temp;Humidity;BMP_temperature;BMP_pressure;BME280_temperature;BME280_humidity;BME280_pressure;Samples;Min_cycle;Max_cycle;Signal;HPM_P1;HPM_P2
2021/04/04 00:00:12;;;;;;;0.60;0.60;;;;;;;4.06;52.81;97458.78;29990;204;6004;-56
2021/04/04 00:00:43;;;;;;;0.60;0.60;;;;;;;4.05;53.18;97457.94;29990;234;6000;-57
2021/04/04 00:01:13;;;;;;;0.60;0.60;;;;;;;4.04;53.31;97469.75;29990;261;6005;-57
2021/04/04 00:01:46;;;;;;;0.60;0.60;;;;;;;4.01;53.51;97468.34;29989;244;6000;-56
2021/04/04 00:02:17;;;;;;;0.60;0.60;;;;;;;3.98;54.43;97468.81;29990;212;6005;-56
2021/04/04 00:02:47;;;;;;;0.60;0.60;;;;;;;3.93;54.33;97471.41;29991;199;6000;-57
2021/04/04 00:03:18;;;;;;;0.68;0.68;;;;;;;3.91;54.20;97473.50;29990;266;6005;-56
2021/04/04 00:03:50;;;;;;;0.60;0.60;;;;;;;3.91;54.19;97472.69;29991;202;6000;-57
2021/04/04 00:04:20;;;;;;;1.27;1.20;;;;;;;3.88;54.42;97467.78;29990;219;6004;-57
2021/04/04 00:04:52;;;;;;;0.60;0.60;;;;;;;3.85;54.29;97463.69;29990;243;6000;-56
2021/04/04 00:05:22;;;;;;;0.70;0.70;;;;;;;3.83;54.65;97470.34;29989;203;6004;-57
2021/04/04 00:05:53;;;;;;;0.60;0.60;;;;;;;3.80;54.67;97466.31;29990;217;6000;-58
2021/04/04 00:06:25;;;;;;;0.60;0.60;;;;;;;3.77;54.24;97469.44;29990;217;6004;-58
2021/04/04 00:06:59;;;;;;;0.60;0.60;;;;;;;3.77;54.08;97461.41;29989;212;6000;-58
2021/04/04 00:07:31;;;;;;;0.60;0.60;;;;;;;3.81;54.14;97462.53;29990;216;6009;-58
2021/04/04 00:08:03;;;;;;;0.60;0.60;;;;;;;3.84;53.88;97472.81;29990;227;6000;-57
2021/04/04 00:08:34;;;;;;;0.60;0.60;;;;;;;3.87;53.83;97466.16;29990;197;6005;-58
2021/04/04 00:09:05;;;;;;;0.60;0.60;;;;;;;3.87;53.71;97468.84;29990;228;6000;-58
2021/04/04 00:09:36;;;;;;;0.60;0.60;;;;;;;3.88;53.84;97473.16;29990;222;6005;-58
2021/04/04 00:10:12;;;;;;;0.60;0.60;;;;;;;3.88;53.67;97465.91;29989;222;6000;-58
2021/04/04 00:10:43;;;;;;;0.60;0.60;;;;;;;3.89;53.54;97458.69;29990;210;6005;-58
2021/04/04 00:11:14;;;;;;;0.60;0.60;;;;;;;3.91;53.43;97468.13;29990;227;6000;-58
2021/04/04 00:11:45;;;;;;;0.60;0.60;;;;;;;3.91;53.37;97467.31;29990;227;6004;-58
2021/04/04 00:12:15;;;;;;;0.60;0.60;;;;;;;3.90;53.55;97465.69;29990;219;6000;-58
2021/04/04 00:12:47;;;;;;;0.60;0.60;;;;;;;3.90;53.60;97469.19;29990;213;6004;-58
2021/04/04 00:13:17;;;;;;;0.60;0.60;;;;;;;3.87;53.69;97456.22;29989;235;6000;-58
2021/04/04 00:13:48;;;;;;;0.60;0.60;;;;;;;3.89;53.48;97466.72;29990;196;6004;-58
2021/04/04 00:14:19;;;;;;;0.60;0.60;;;;;;;3.87;53.57;97466.97;29990;214;6000;-58
2021/04/04 00:14:50;;;;;;;0.60;0.60;;;;;;;3.86;53.58;97462.66;29989;244;6004;-58
2021/04/04 00:15:21;;;;;;;0.60;0.60;;;;;;;3.85;54.05;97469.06;29990;219;6000;-56
2021/04/04 00:15:55;;;;;;;0.60;0.60;;;;;;;3.83;53.97;97463.13;29989;213;6004;-57
2021/04/04 00:16:25;;;;;;;0.60;0.60;;;;;;;3.82;53.72;97464.16;29990;197;6000;-56
2021/04/04 00:16:56;;;;;;;0.60;0.60;;;;;;;3.83;53.75;97463.13;29990;236;6005;-57
2021/04/04 00:17:26;;;;;;;0.60;0.60;;;;;;;3.82;53.85;97466.84;29990;212;6000;-57
2021/04/04 00:17:57;;;;;;;0.60;0.60;;;;;;;3.81;53.85;97462.53;29990;211;6005;-56
2021/04/04 00:18:27;;;;;;;0.60;0.60;;;;;;;3.80;53.62;97468.16;29991;215;6000;-56
2021/04/04 00:18:58;;;;;;;0.60;0.60;;;;;;;3.79;53.72;97461.16;29990;210;6004;-56
2021/04/04 00:19:29;;;;;;;0.60;0.60;;;;;;;3.78;53.66;97462.22;29990;253;6000;-57
2021/04/04 00:19:59;;;;;;;0.60;0.60;;;;;;;3.76;53.67;97465.13;29989;227;6004;-57
2021/04/04 00:20:30;;;;;;;0.60;0.60;;;;;;;3.75;53.32;97466.19;29990;210;6000;-56
2021/04/04 00:21:00;;;;;;;0.70;0.70;;;;;;;3.74;53.31;97455.69;29991;191;6004;-56
2021/04/04 00:21:31;;;;;;;0.60;0.60;;;;;;;3.75;53.51;97458.13;29990;257;6000;-57
2021/04/04 00:22:02;;;;;;;0.60;0.60;;;;;;;3.76;53.58;97461.63;29990;200;6004;-57
2021/04/04 00:22:32;;;;;;;0.60;0.60;;;;;;;3.76;53.53;97464.31;29990;265;6000;-56
2021/04/04 00:23:04;;;;;;;0.60;0.60;;;;;;;3.75;53.59;97458.13;29990;235;6004;-56
2021/04/04 00:23:35;;;;;;;0.60;0.60;;;;;;;3.74;53.40;97456.50;29990;223;6009;-56
2021/04/04 00:24:10;;;;;;;0.60;0.60;;;;;;;3.77;53.32;97458.72;29990;227;6005;-57
2021/04/04 00:24:40;;;;;;;0.60;0.60;;;;;;;3.79;53.18;97464.66;29990;204;6000;-56
2021/04/04 00:25:14;;;;;;;0.60;0.60;;;;;;;3.77;53.28;97455.22;29989;197;6005;-57
2021/04/04 00:25:44;;;;;;;0.70;0.70;;;;;;;3.77;53.30;97455.22;29990;225;6000;-56
2021/04/04 00:26:15;;;;;;;0.60;0.60;;;;;;;3.75;53.38;97460.81;29990;206;6004;-56
2021/04/04 00:26:45;;;;;;;0.62;0.62;;;;;;;3.76;53.36;97458.94;29990;266;6000;-57
2021/04/04 00:27:16;;;;;;;0.60;0.60;;;;;;;3.73;53.20;97449.50;29990;222;6004;-56
2021/04/04 00:27:46;;;;;;;0.60;0.60;;;;;;;3.76;53.08;97459.75;29990;234;6000;-57
2021/04/04 00:28:18;;;;;;;0.60;0.60;;;;;;;3.77;53.32;97456.03;29990;216;6004;-57
2021/04/04 00:28:48;;;;;;;0.60;0.60;;;;;;;3.80;53.18;97455.56;29990;261;6000;-57
2021/04/04 00:29:19;;;;;;;0.60;0.60;;;;;;;3.79;53.12;97459.28;29990;202;6004;-56
2021/04/04 00:29:50;;;;;;;0.62;0.62;;;;;;;3.80;53.03;97460.12;29990;222;6000;-57
2021/04/04 00:30:22;;;;;;;0.60;0.60;;;;;;;3.80;53.19;97455.56;29989;241;6004;-57
2021/04/04 00:30:52;;;;;;;0.60;0.60;;;;;;;3.81;53.28;97462.53;29990;197;6000;-56
2021/04/04 00:31:23;;;;;;;0.60;0.60;;;;;;;3.81;53.16;97459.84;29990;248;6005;-56
2021/04/04 00:31:54;;;;;;;0.60;0.60;;;;;;;3.82;53.13;97461.47;29990;222;6000;-57
2021/04/04 00:32:25;;;;;;;0.60;0.60;;;;;;;3.83;53.15;97455.06;29990;216;6005;-56
2021/04/04 00:32:55;;;;;;;0.60;0.60;;;;;;;3.84;53.14;97456.69;29989;205;6000;-57
2021/04/04 00:33:26;;;;;;;0.60;0.60;;;;;;;3.85;53.02;97463.69;29990;203;6005;-56
2021/04/04 00:33:57;;;;;;;0.60;0.60;;;;;;;3.88;52.98;97463.22;29990;202;6000;-56
2021/04/04 00:34:28;;;;;;;0.60;0.60;;;;;;;3.90;52.99;97454.94;29989;211;6004;-57
2021/04/04 00:34:58;;;;;;;0.60;0.60;;;;;;;3.92;52.79;97453.66;29991;233;6000;-56
2021/04/04 00:35:29;;;;;;;0.60;0.60;;;;;;;3.94;52.92;97456.09;29989;295;6004;-57
2021/04/04 00:35:59;;;;;;;0.60;0.60;;;;;;;3.94;53.03;97456.91;29990;222;6000;-56
2021/04/04 00:36:30;;;;;;;0.70;0.70;;;;;;;3.93;53.16;97460.66;29990;225;6004;-53
2021/04/04 00:37:01;;;;;;;0.60;0.60;;;;;;;3.94;53.19;97456.91;29990;215;6000;-56
2021/04/04 00:37:32;;;;;;;0.60;0.60;;;;;;;3.94;53.15;97456.09;29990;202;6004;-57
2021/04/04 00:38:04;;;;;;;0.60;0.60;;;;;;;3.95;53.30;97457.75;29990;228;6000;-56
2021/04/04 00:38:34;;;;;;;0.60;0.60;;;;;;;3.94;53.39;97451.56;29990;214;6005;-56
2021/04/04 00:39:10;;;;;;;0.60;0.60;;;;;;;3.95;53.31;97455.87;29990;207;6000;-58
2021/04/04 00:39:44;;;;;;;0.60;0.60;;;;;;;3.96;53.57;97460.19;29990;202;6005;-57
2021/04/04 00:40:26;;;;;;;0.60;0.60;;;;;;;3.92;53.65;97453.66;29990;197;6000;-56
2021/04/04 00:40:58;;;;;;;0.60;0.60;;;;;;;3.92;53.54;97453.66;29989;224;6004;-57
2021/04/04 00:41:29;;;;;;;0.60;0.60;;;;;;;3.91;53.81;97457.38;29990;197;6000;-56
2021/04/04 00:42:00;;;;;;;0.60;0.60;;;;;;;3.90;53.85;97457.63;29990;229;6004;-57
2021/04/04 00:42:33;;;;;;;0.60;0.60;;;;;;;3.87;54.07;97456.22;29990;203;6000;-57
2021/04/04 00:43:05;;;;;;;0.60;0.60;;;;;;;3.86;53.88;97464.50;29990;199;6004;-56
2021/04/04 00:43:36;;;;;;;0.60;0.60;;;;;;;3.85;54.04;97461.00;29990;222;6000;-56
2021/04/04 00:44:07;;;;;;;0.70;0.70;;;;;;;3.83;53.82;97463.13;29989;241;6004;-57
2021/04/04 00:44:38;;;;;;;0.60;0.60;;;;;;;3.83;53.97;97455.06;29990;205;6000;-57
2021/04/04 00:45:18;;;;;;;0.60;0.60;;;;;;;3.83;53.94;97455.06;29990;205;6004;-56
2021/04/04 00:45:52;;;;;;;0.60;0.60;;;;;;;3.84;53.86;97459.38;29990;289;6000;-56
2021/04/04 00:46:22;;;;;;;0.60;0.60;;;;;;;3.86;54.12;97461.81;29989;270;6005;-57
2021/04/04 00:46:56;;;;;;;0.60;0.60;;;;;;;3.86;54.15;97459.97;29990;230;6000;-57
2021/04/04 00:47:28;;;;;;;0.60;0.60;;;;;;;3.86;54.10;97465.34;29990;205;6005;-57
2021/04/04 00:47:59;;;;;;;0.60;0.60;;;;;;;3.86;54.05;97454.59;29990;212;6000;-56
2021/04/04 00:48:30;;;;;;;0.60;0.60;;;;;;;3.87;54.50;97464.28;29990;243;6018;-56
2021/04/04 00:49:00;;;;;;;0.60;0.60;;;;;;;3.87;54.47;97458.91;29991;262;6000;-56
2021/04/04 00:49:31;;;;;;;0.60;0.60;;;;;;;3.89;54.08;97464.03;29990;219;6004;-56
2021/04/04 00:50:07;;;;;;;0.60;0.60;;;;;;;3.91;54.02;97457.38;29990;244;6000;-56
2021/04/04 00:50:40;;;;;;;0.62;0.62;;;;;;;3.92;53.64;97459.03;29990;294;6004;-56
2021/04/04 00:51:12;;;;;;;0.60;0.60;;;;;;;3.92;53.70;97458.22;29990;223;6000;-57
2021/04/04 00:51:43;;;;;;;0.60;0.60;;;;;;;3.90;53.50;97454.94;29989;217;6004;-56
2021/04/04 00:52:13;;;;;;;0.60;0.60;;;;;;;3.94;53.37;97459.59;29990;196;6000;-53
2021/04/04 00:52:46;;;;;;;0.60;0.60;;;;;;;3.92;53.51;97459.03;29990;236;6004;-56
2021/04/04 00:53:16;;;;;;;0.60;0.60;;;;;;;3.94;53.35;97456.91;29990;221;6000;-56
2021/04/04 00:53:47;;;;;;;0.60;0.60;;;;;;;3.93;53.57;97454.47;29990;202;6005;-56
2021/04/04 00:54:19;;;;;;;0.60;0.60;;;;;;;3.91;53.85;97454.72;29991;247;6000;-56
2021/04/04 00:54:50;;;;;;;0.60;0.60;;;;;;;3.91;53.76;97456.56;29990;197;6005;-56
2021/04/04 00:55:21;;;;;;;0.60;0.60;;;;;;;3.90;53.66;97461.13;29990;196;6000;-56
2021/04/04 00:55:51;;;;;;;0.60;0.60;;;;;;;3.91;53.83;97467.31;29990;222;6004;-53
2021/04/04 00:56:22;;;;;;;0.60;0.60;;;;;;;3.90;54.00;97461.13;29990;199;6000;-56
2021/04/04 00:56:53;;;;;;;0.60;0.60;;;;;;;3.86;53.85;97459.16;29990;207;6004;-56
2021/04/04 00:57:25;;;;;;;0.60;0.60;;;;;;;3.88;53.78;97457.84;29990;225;6000;-52
2021/04/04 00:57:56;;;;;;;0.60;0.60;;;;;;;3.87;54.15;97461.59;29990;218;6004;-57
2021/04/04 00:58:27;;;;;;;0.60;0.60;;;;;;;3.87;54.22;97458.09;29990;235;6000;-56
2021/04/04 00:58:58;;;;;;;0.60;0.60;;;;;;;3.82;54.18;97453.44;29990;266;6004;-57
2021/04/04 00:59:31;;;;;;;0.70;0.70;;;;;;;3.86;54.50;97454.59;29990;205;6000;-56
2021/04/04 01:00:05;;;;;;;0.60;0.60;;;;;;;3.85;54.34;97466.38;29990;206;6004;-53
2021/04/04 01:00:36;;;;;;;0.68;0.68;;;;;;;3.82;54.25;97448.06;29990;223;6000;-56
2021/04/04 01:01:07;;;;;;;0.60;0.60;;;;;;;3.86;54.17;97459.97;29990;223;6005;-57
2021/04/04 01:01:38;;;;;;;0.70;0.70;;;;;;;3.85;54.45;97455.66;29990;207;6000;-57
2021/04/04 01:02:14;;;;;;;0.60;0.60;;;;;;;3.83;54.24;97455.06;29989;238;6005;-56
2021/04/04 01:02:45;;;;;;;0.70;0.70;;;;;;;3.83;54.25;97459.62;29990;197;6000;-56
2021/04/04 01:03:16;;;;;;;0.60;0.60;;;;;;;3.82;54.25;97449.94;29990;196;6015;-57
2021/04/04 01:03:46;;;;;;;0.70;0.70;;;;;;;3.82;54.21;97458.78;29990;213;6010;-53
2021/04/04 01:04:17;;;;;;;0.65;0.65;;;;;;;3.82;54.16;97456.13;29990;239;6000;-57
2021/04/04 01:04:50;;;;;;;0.60;0.60;;;;;;;3.82;54.15;97457.97;29990;223;6000;-56
2021/04/04 01:05:30;;;;;;;0.65;0.65;;;;;;;3.82;54.36;97452.63;29990;262;6004;-56
2021/04/04 01:06:07;;;;;;;0.60;0.60;;;;;;;3.81;54.22;97457.16;29990;197;6000;-58
2021/04/04 01:06:37;;;;;;;0.60;0.60;;;;;;;3.79;54.37;97453.13;29990;253;6004;-53
2021/04/04 01:07:08;;;;;;;0.60;0.60;;;;;;;3.73;54.62;97449.50;29990;239;6008;-57
2021/04/04 01:07:42;;;;;;;0.70;0.70;;;;;;;3.75;54.50;97450.09;29990;265;6014;-53
2021/04/04 01:08:12;;;;;;;0.60;0.60;;;;;;;3.76;54.54;97456.25;29990;213;6000;-56
2021/04/04 01:08:43;;;;;;;0.60;0.60;;;;;;;3.74;55.13;97455.69;29990;270;6005;-56
2021/04/04 01:09:14;;;;;;;0.60;0.60;;;;;;;3.68;55.01;97452.88;29990;237;6000;-57
2021/04/04 01:09:46;;;;;;;0.60;0.60;;;;;;;3.64;55.05;97450.91;29990;289;6005;-56
2021/04/04 01:10:17;;;;;;;0.60;0.60;;;;;;;3.62;55.38;97455.69;29990;219;6000;-53
2021/04/04 01:10:49;;;;;;;0.65;0.65;;;;;;;3.60;55.46;97450.56;29990;237;6004;-56
2021/04/04 01:11:27;;;;;;;0.70;0.70;;;;;;;3.62;55.33;97453.00;29991;202;6008;-56
2021/04/04 01:12:09;;;;;;;0.70;0.70;;;;;;;3.63;55.43;97454.63;29990;243;6004;-57
2021/04/04 01:13:20;;;;;;;0.60;0.60;;;;;;;3.59;55.42;97456.16;29989;251;6000;-57
2021/04/04 01:13:56;;;;;;;0.70;0.70;;;;;;;3.51;56.03;97446.59;29990;231;6004;-57
2021/04/04 01:14:32;;;;;;;0.60;0.60;;;;;;;3.48;55.96;97456.97;29990;238;6008;-53
2021/04/04 01:15:10;;;;;;;0.60;0.60;;;;;;;3.49;56.17;97453.22;29990;265;6004;-58
2021/04/04 01:15:55;;;;;;;0.70;0.70;;;;;;;3.48;56.03;97454.28;29990;239;6000;-54
2021/04/04 01:16:36;;;;;;;0.70;0.70;;;;;;;3.43;56.04;97449.63;29991;202;6005;-58
2021/04/04 01:17:08;;;;;;;0.70;0.70;;;;;;;3.46;56.00;97459.91;29990;272;6000;-58
2021/04/04 01:17:41;;;;;;;0.60;0.60;;;;;;;3.49;56.04;97461.28;29990;232;6005;-58
2021/04/04 01:18:41;;;;;;;0.60;0.60;;;;;;;3.49;55.97;97456.72;29989;242;6000;-57
2021/04/04 01:19:40;;;;;;;0.70;0.70;;;;;;;3.48;55.84;97457.78;29990;216;6004;-56
2021/04/04 01:20:23;;;;;;;0.68;0.68;;;;;;;3.48;55.81;97451.59;29990;225;6000;-57
2021/04/04 01:21:00;;;;;;;0.70;0.70;;;;;;;3.50;55.72;97454.87;29990;279;6004;-57
2021/04/04 01:21:47;;;;;;;0.70;0.70;;;;;;;3.49;55.67;97447.87;29989;241;6000;-56
2021/04/04 01:23:00;;;;;;;0.70;0.70;;;;;;;3.47;55.83;97456.16;29990;237;6004;-57
2021/04/04 01:24:25;;;;;;;0.70;0.70;;;;;;;3.41;55.98;97451.75;29990;285;6005;-56
2021/04/04 01:25:31;;;;;;;0.70;0.70;;;;;;;3.35;56.02;97449.97;29990;274;6000;-55
2021/04/04 01:26:09;;;;;;;0.60;0.60;;;;;;;3.46;55.82;97459.91;29989;212;6004;-56
2021/04/04 01:26:55;;;;;;;0.70;0.70;;;;;;;3.49;55.81;97461.28;29989;202;6010;-56
2021/04/04 01:27:55;;;;;;;0.65;0.65;;;;;;;3.46;56.04;97454.53;29990;278;6004;-56
2021/04/04 01:28:30;;;;;;;0.70;0.70;;;;;;;3.44;56.11;97453.13;29990;202;6004;-56
2021/04/04 01:29:05;;;;;;;0.60;0.60;;;;;;;3.44;55.97;97461.19;29990;244;6000;-56
2021/04/04 01:29:43;;;;;;;0.60;0.60;;;;;;;3.45;56.04;97462.81;29989;292;6004;-56
2021/04/04 01:30:16;;;;;;;0.70;0.70;;;;;;;3.46;56.01;97459.09;29990;224;6000;-56
2021/04/04 01:30:48;;;;;;;0.60;0.60;;;;;;;3.46;55.94;97461.78;29990;214;6005;-56
2021/04/04 01:31:20;;;;;;;0.60;0.60;;;;;;;3.44;56.04;97458.50;29990;223;6000;-57
2021/04/04 01:31:52;;;;;;;0.62;0.62;;;;;;;3.44;56.05;97455.81;29990;243;6005;-56
2021/04/04 01:32:23;;;;;;;0.62;0.62;;;;;;;3.44;56.11;97461.19;29990;282;6000;-56
2021/04/04 01:32:54;;;;;;;0.62;0.62;;;;;;;3.46;55.99;97461.78;29990;237;6005;-56
2021/04/04 01:33:28;;;;;;;0.60;0.60;;;;;;;3.45;56.01;97460.12;29990;277;6000;-56
2021/04/04 01:33:59;;;;;;;0.60;0.60;;;;;;;3.46;56.22;97457.22;29989;202;6004;-57
2021/04/04 01:34:31;;;;;;;0.60;0.60;;;;;;;3.48;56.13;97462.31;29990;222;6000;-56
2021/04/04 01:35:06;;;;;;;0.60;0.60;;;;;;;3.48;56.11;97459.66;29990;197;6004;-57
2021/04/04 01:35:41;;;;;;;0.60;0.60;;;;;;;3.48;56.06;97457.78;29990;223;6000;-57
2021/04/04 01:36:16;;;;;;;0.70;0.70;;;;;;;3.44;56.43;97464.69;29990;224;6004;-56
2021/04/04 01:36:50;;;;;;;0.70;0.70;;;;;;;3.40;56.61;97454.66;29989;235;6000;-56
2021/04/04 01:37:22;;;;;;;0.60;0.60;;;;;;;3.36;56.59;97455.13;29990;212;6004;-53
2021/04/04 01:37:58;;;;;;;0.60;0.60;;;;;;;3.33;56.85;97455.59;29990;230;6000;-56
2021/04/04 01:38:33;;;;;;;0.70;0.70;;;;;;;3.32;56.66;97459.31;29990;228;6005;-56
2021/04/04 01:39:08;;;;;;;0.70;0.70;;;;;;;3.31;56.80;97460.38;29989;238;6007;-56
2021/04/04 01:39:44;;;;;;;0.60;0.60;;;;;;;3.30;56.70;97461.41;29989;200;6005;-53
2021/04/04 01:40:20;;;;;;;0.60;0.60;;;;;;;3.31;56.74;97457.69;29990;209;6000;-57
2021/04/04 01:40:56;;;;;;;0.60;0.60;;;;;;;3.25;57.06;97452.41;29990;216;6004;-56
2021/04/04 01:41:31;;;;;;;0.60;0.60;;;;;;;3.26;57.12;97465.59;29990;228;6000;-56
2021/04/04 01:42:02;;;;;;;0.60;0.60;;;;;;;3.25;57.06;97458.59;29990;213;6004;-53
2021/04/04 01:42:38;;;;;;;0.60;0.60;;;;;;;3.25;57.12;97463.97;29990;221;6010;-57
2021/04/04 01:43:10;;;;;;;0.60;0.60;;;;;;;3.25;57.16;97463.97;29990;224;6004;-57
2021/04/04 01:43:43;;;;;;;0.70;0.70;;;;;;;3.26;57.32;97464.78;29990;203;6000;-56
2021/04/04 01:44:17;;;;;;;0.70;0.70;;;;;;;3.26;57.34;97470.16;29989;230;6004;-57
2021/04/04 01:44:50;;;;;;;0.60;0.60;;;;;;;3.23;57.54;97455.34;29990;242;6000;-57
2021/04/04 01:45:22;;;;;;;0.70;0.70;;;;;;;3.23;57.51;97458.00;29990;229;6005;-56
2021/04/04 01:45:54;;;;;;;0.70;0.70;;;;;;;3.21;57.28;97457.44;29990;205;6000;-57
2021/04/04 01:46:26;;;;;;;0.70;0.70;;;;;;;3.17;57.24;97456.25;29990;302;6005;-56
2021/04/04 01:46:58;;;;;;;0.60;0.60;;;;;;;3.20;57.35;97461.16;29990;249;6000;-56
2021/04/04 01:47:30;;;;;;;0.60;0.60;;;;;;;3.18;57.82;97457.88;29990;203;6004;-57
2021/04/04 01:48:03;;;;;;;0.60;0.60;;;;;;;3.17;57.57;97461.63;29990;204;6000;-56
2021/04/04 01:48:34;;;;;;;0.70;0.70;;;;;;;3.16;57.43;97460.00;29990;233;6004;-57
2021/04/04 01:49:06;;;;;;;0.60;0.60;;;;;;;3.16;57.63;97456.50;29990;244;6000;-57
2021/04/04 01:49:40;;;;;;;0.60;0.60;;;;;;;3.14;57.64;97462.06;29989;218;6000;-57
2021/04/04 01:50:11;;;;;;;0.60;0.60;;;;;;;3.15;57.70;97469.06;29990;255;6010;-57
2021/04/04 01:50:43;;;;;;;0.60;0.60;;;;;;;3.14;57.91;97459.41;29990;199;6004;-57
2021/04/04 01:51:14;;;;;;;0.60;0.60;;;;;;;3.13;58.04;97470.34;29990;276;6000;-56
2021/04/04 01:51:46;;;;;;;0.68;0.68;;;;;;;3.09;57.87;97453.94;29990;269;6004;-56
2021/04/04 01:52:17;;;;;;;0.70;0.70;;;;;;;3.10;58.11;97460.94;29989;197;6000;-53
2021/04/04 01:52:50;;;;;;;0.70;0.70;;;;;;;3.08;58.20;97463.03;29990;216;6005;-56
2021/04/04 01:53:22;;;;;;;0.70;0.70;;;;;;;3.06;58.33;97459.75;29989;202;6000;-56
2021/04/04 01:53:56;;;;;;;0.70;0.70;;;;;;;3.06;58.00;97459.75;29990;219;6005;-57
2021/04/04 01:54:30;;;;;;;0.60;0.60;;;;;;;3.05;58.42;97460.00;29990;242;6000;-56
2021/04/04 01:55:03;;;;;;;0.60;0.60;;;;;;;3.01;58.26;97462.31;29990;220;6004;-57
2021/04/04 01:55:38;;;;;;;0.60;0.60;;;;;;;3.00;58.62;97463.34;29990;249;6000;-56
2021/04/04 01:56:09;;;;;;;0.60;0.60;;;;;;;2.99;58.81;97459.88;29990;268;6004;-56
2021/04/04 01:56:41;;;;;;;0.60;0.60;;;;;;;2.98;58.51;97460.09;29990;216;6000;-56
2021/04/04 01:57:14;;;;;;;0.60;0.60;;;;;;;2.97;58.70;97455.78;29990;204;6004;-57
2021/04/04 01:57:46;;;;;;;0.60;0.60;;;;;;;2.97;58.59;97455.78;29990;280;6009;-56
2021/04/04 01:58:17;;;;;;;3.55;2.55;;;;;;;2.97;58.46;97455.78;29990;231;6004;-56
2021/04/04 01:58:50;;;;;;;0.60;0.60;;;;;;;2.96;58.44;97457.63;29989;271;6000;-57
2021/04/04 01:59:22;;;;;;;0.60;0.60;;;;;;;2.96;58.38;97460.31;29990;214;6004;-56
2021/04/04 01:59:53;;;;;;;0.60;0.60;;;;;;;2.96;58.23;97454.16;29990;219;6000;-56
2021/04/04 02:00:27;;;;;;;0.60;0.60;;;;;;;2.97;58.21;97450.41;29990;214;6005;-56
2021/04/04 02:00:59;;;;;;;0.70;0.70;;;;;;;3.00;58.18;97453.47;29990;220;6000;-56
2021/04/04 02:01:31;;;;;;;0.70;0.70;;;;;;;3.03;57.72;97439.59;29990;214;6005;-57
2021/04/04 02:02:04;;;;;;;0.60;0.60;;;;;;;3.07;57.45;97447.19;29990;244;6000;-56
2021/04/04 02:02:35;;;;;;;0.70;0.70;;;;;;;3.12;57.55;97447.31;29990;216;6004;-56
2021/04/04 02:03:09;;;;;;;0.70;0.70;;;;;;;3.14;57.22;97446.00;29990;253;6000;-57
2021/04/04 02:03:44;;;;;;;0.60;0.60;;;;;;;3.16;57.21;97449.25;29989;197;6004;-56
2021/04/04 02:04:20;;;;;;;0.60;0.60;;;;;;;3.19;57.13;97448.81;29990;232;6000;-57
2021/04/04 02:04:51;;;;;;;0.65;0.65;;;;;;;3.20;57.22;97445.06;29989;210;6004;-56
2021/04/04 02:05:24;;;;;;;0.70;0.70;;;;;;;3.22;57.05;97452.88;29990;232;6000;-56
2021/04/04 02:05:58;;;;;;;0.60;0.60;;;;;;;3.24;56.69;97440.87;29990;258;6004;-52
2021/04/04 02:06:30;;;;;;;0.60;0.60;;;;;;;3.23;56.71;97444.59;29990;222;6000;-56
2021/04/04 02:07:01;;;;;;;0.60;0.60;;;;;;;3.27;56.86;97451.12;29990;224;6004;-56
2021/04/04 02:07:33;;;;;;;0.62;0.62;;;;;;;3.28;57.06;97447.41;29990;278;6000;-56
2021/04/04 02:08:09;;;;;;;0.60;0.60;;;;;;;3.28;56.65;97442.06;29989;257;6005;-56
2021/04/04 02:08:42;;;;;;;0.65;0.65;;;;;;;3.28;56.55;97442.06;29989;275;6000;-56
2021/04/04 02:09:15;;;;;;;0.60;0.60;;;;;;;3.27;56.87;97437.72;29990;197;6005;-56
2021/04/04 02:09:48;;;;;;;0.60;0.60;;;;;;;3.27;56.70;97439.59;29990;224;6000;-56
2021/04/04 02:10:25;;;;;;;0.60;0.60;;;;;;;3.27;56.46;97436.91;29990;203;6004;-56
2021/04/04 02:10:58;;;;;;;0.60;0.60;;;;;;;3.27;56.59;97444.97;29990;213;6000;-56
2021/04/04 02:11:31;;;;;;;0.60;0.60;;;;;;;3.26;56.56;97435.28;29989;218;6004;-56
2021/04/04 02:12:05;;;;;;;0.60;0.60;;;;;;;3.25;56.57;97437.16;29990;257;6000;-56
2021/04/04 02:12:36;;;;;;;0.60;0.60;;;;;;;3.21;56.17;97433.28;29990;218;6004;-57
2021/04/04 02:13:12;;;;;;;0.60;0.60;;;;;;;3.28;56.22;97435.88;29990;228;6000;-57
2021/04/04 02:13:45;;;;;;;0.60;0.60;;;;;;;3.30;56.17;97431.09;29990;239;6004;-56
2021/04/04 02:14:20;;;;;;;0.60;0.60;;;;;;;3.31;56.02;97436.22;29990;224;6006;-56
2021/04/04 02:14:51;;;;;;;0.60;0.60;;;;;;;3.29;56.18;97438.31;29990;242;6004;-57
2021/04/04 02:15:26;;;;;;;0.60;0.60;;;;;;;3.27;56.13;97436.91;29990;224;6000;-56
2021/04/04 02:15:59;;;;;;;0.60;0.60;;;;;;;3.23;56.07;97431.19;29989;269;6005;-57
2021/04/04 02:16:32;;;;;;;0.60;0.60;;;;;;;3.23;56.12;97427.69;29989;216;6000;-56
2021/04/04 02:17:04;;;;;;;0.60;0.60;;;;;;;3.25;56.17;97437.16;29990;229;6005;-56
2021/04/04 02:17:36;;;;;;;0.60;0.60;;;;;;;3.21;56.42;97425.25;29990;237;6000;-56
2021/04/04 02:18:09;;;;;;;0.60;0.60;;;;;;;3.25;56.15;97437.16;29990;222;6004;-56
2021/04/04 02:18:43;;;;;;;0.60;0.60;;;;;;;3.24;56.39;97432.84;29989;235;6000;-56
2021/04/04 02:19:18;;;;;;;0.70;0.70;;;;;;;3.23;56.37;97431.19;29990;209;6004;-56
2021/04/04 02:19:51;;;;;;;0.70;0.70;;;;;;;3.24;56.36;97435.50;29990;277;6010;-56
2021/04/04 02:20:24;;;;;;;0.68;0.68;;;;;;;3.26;56.10;97432.59;29990;204;6004;-56
2021/04/04 02:20:59;;;;;;;0.60;0.60;;;;;;;3.26;56.03;97425.37;29990;199;6000;-56
2021/04/04 02:21:30;;;;;;;0.70;0.70;;;;;;;3.28;56.13;97433.19;29990;196;6004;-54
2021/04/04 02:22:01;;;;;;;0.70;0.70;;;;;;;3.25;55.99;97430.97;29990;199;6000;-53
2021/04/04 02:22:33;;;;;;;0.70;0.70;;;;;;;3.24;56.30;97432.00;29990;214;6004;-56
2021/04/04 02:23:10;;;;;;;0.60;0.60;;;;;;;3.23;56.31;97425.84;29990;239;6000;-56
2021/04/04 02:23:42;;;;;;;0.60;0.60;;;;;;;3.24;56.38;97432.84;29989;228;6005;-56
2021/04/04 02:24:14;;;;;;;0.60;0.60;;;;;;;3.22;56.11;97424.19;29990;239;6000;-56
2021/04/04 02:24:46;;;;;;;0.70;0.70;;;;;;;3.23;56.25;97428.50;29990;240;6005;-53
2021/04/04 02:25:17;;;;;;;0.60;0.60;;;;;;;3.16;56.59;97417.09;29989;212;6000;-56
2021/04/04 02:25:52;;;;;;;0.60;0.60;;;;;;;3.15;56.59;97431.53;29990;226;6004;-57
2021/04/04 02:26:22;;;;;;;0.70;0.70;;;;;;;3.12;56.76;97432.00;29990;214;6000;-56
2021/04/04 02:26:54;;;;;;;0.60;0.60;;;;;;;3.15;56.75;97431.53;29990;285;6004;-56
2021/04/04 02:27:25;;;;;;;0.60;0.60;;;;;;;3.16;56.33;97427.81;29990;202;6000;-56
2021/04/04 02:27:57;;;;;;;0.60;0.60;;;;;;;3.15;56.20;97420.81;29990;253;6004;-52
2021/04/04 02:28:30;;;;;;;0.60;0.60;;;;;;;3.20;56.21;97423.63;29990;263;6000;-57
2021/04/04 02:29:01;;;;;;;0.68;0.68;;;;;;;3.22;56.10;97426.88;29989;248;6004;-56
2021/04/04 02:29:32;;;;;;;0.60;0.60;;;;;;;3.18;56.17;97417.66;29990;201;6009;-56
2021/04/04 02:30:11;;;;;;;0.60;0.60;;;;;;;3.20;56.71;97423.63;29990;201;6004;-57
2021/04/04 02:30:41;;;;;;;0.60;0.60;;;;;;;3.18;56.81;97431.06;29990;199;6000;-57
2021/04/04 02:31:13;;;;;;;0.70;0.70;;;;;;;3.14;56.65;97427.22;29990;199;6005;-56
2021/04/04 02:31:52;;;;;;;0.60;0.60;;;;;;;3.08;57.02;97420.13;29990;226;6000;-57
2021/04/04 02:32:26;;;;;;;0.70;0.70;;;;;;;3.10;57.03;97423.41;29989;209;6005;-56
2021/04/04 02:33:05;;;;;;;0.60;0.60;;;;;;;3.13;56.65;97422.91;29990;294;6000;-57
2021/04/04 02:33:50;;;;;;;0.60;0.60;;;;;;;3.15;56.37;97428.84;29990;220;6004;-57
2021/04/04 02:34:25;;;;;;;0.60;0.60;;;;;;;3.17;56.27;97432.13;29990;231;6000;-56
2021/04/04 02:35:00;;;;;;;0.60;0.60;;;;;;;3.19;55.79;97431.87;29989;268;6004;-57
2021/04/04 02:35:38;;;;;;;0.60;0.60;;;;;;;3.20;55.80;97428.97;29990;234;6000;-56
2021/04/04 02:36:13;;;;;;;0.62;0.62;;;;;;;3.21;56.00;97429.78;29990;218;6004;-56
2021/04/04 02:36:44;;;;;;;0.60;0.60;;;;;;;3.18;56.70;97432.94;29990;231;6000;-56
2021/04/04 02:37:16;;;;;;;0.70;0.70;;;;;;;3.14;56.62;97434.44;29990;254;6005;-57
2021/04/04 02:37:47;;;;;;;0.60;0.60;;;;;;;3.11;56.59;97433.06;29990;206;6000;-56
2021/04/04 02:38:27;;;;;;;0.60;0.60;;;;;;;3.10;56.54;97422.59;29990;219;6005;-56
2021/04/04 02:39:02;;;;;;;0.70;0.70;;;;;;;3.14;56.00;97429.91;29990;233;6000;-56
2021/04/04 02:39:37;;;;;;;0.60;0.60;;;;;;;3.15;55.73;97425.34;29990;263;6005;-56
2021/04/04 02:40:13;;;;;;;0.60;0.60;;;;;;;3.17;55.74;97429.44;29989;196;6000;-57
2021/04/04 02:40:46;;;;;;;0.60;0.60;;;;;;;3.12;55.97;97417.81;29990;208;6004;-56
2021/04/04 02:41:18;;;;;;;0.60;0.60;;;;;;;3.16;56.04;97429.66;29989;252;6000;-56
2021/04/04 02:41:49;;;;;;;0.60;0.60;;;;;;;3.12;56.04;97426.63;29990;210;6000;-56
2021/04/04 02:42:24;;;;;;;0.60;0.60;;;;;;;3.08;56.35;97427.34;29990;227;6000;-57
2021/04/04 02:42:57;;;;;;;0.60;0.60;;;;;;;3.06;56.21;97427.59;29990;215;6004;-57
2021/04/04 02:43:30;;;;;;;0.60;0.60;;;;;;;3.06;56.54;97435.62;29990;239;6000;-57
2021/04/04 02:44:03;;;;;;;0.60;0.60;;;;;;;3.04;56.16;97429.69;29989;283;6004;-57